createdAt,value
2023-03-23T15:58:35.806Z,97679.16
2023-03-23T16:01:26.664Z,97665.59
2023-03-23T16:03:55.693Z,97672.75
2023-03-23T16:06:27.484Z,97679.66
2023-03-23T16:08:55.816Z,97673.28
2023-03-23T16:11:25.011Z,97661.84
2023-03-23T16:13:53.528Z,97667.47
2023-03-23T16:16:27.072Z,97678.28
2023-03-23T16:18:54.419Z,97669.91
2023-03-23T16:21:22.371Z,97666.28
2023-03-23T16:23:49.281Z,97663.94
2023-03-23T16:26:16.078Z,97668.31
2023-03-23T16:28:43.835Z,97668.66
2023-03-23T16:31:11.121Z,97659.84
2023-03-23T16:33:38.127Z,97661.78
2023-03-23T16:36:05.284Z,97671.50
2023-03-23T16:38:32.008Z,97662.97
2023-03-23T16:40:58.781Z,97657.06
2023-03-23T16:43:25.592Z,97665.75
2023-03-23T16:45:56.185Z,97665.97
2023-03-23T16:48:23.562Z,97656.19
2023-03-23T16:50:51.781Z,97658.69
2023-03-23T16:53:18.914Z,97649.94
2023-03-23T16:55:48.165Z,97649.16
2023-03-23T16:58:17.742Z,97636.25
2023-03-23T17:00:50.774Z,97640.06
2023-03-23T17:03:22.248Z,97643.97
2023-03-23T17:05:51.055Z,97643.75
2023-03-23T17:08:19.470Z,97647.03
2023-03-23T17:10:46.360Z,97641.91
2023-03-23T17:13:13.178Z,97640.66
2023-03-23T17:15:43.671Z,97650.06
2023-03-23T17:18:12.642Z,97646.88
2023-03-23T17:20:39.582Z,97644.22
2023-03-23T17:23:06.516Z,97635.13
2023-03-23T17:25:33.292Z,97636.22
2023-03-23T17:28:05.767Z,97638.81
2023-03-23T17:30:34.888Z,97638.56
2023-03-23T17:33:01.756Z,97635.91
2023-03-23T17:35:28.497Z,97631.28
2023-03-23T17:37:55.581Z,97628.19
2023-03-23T17:40:22.236Z,97630.53
2023-03-23T17:42:49.082Z,97635.06
2023-03-23T17:45:16.266Z,97621.69
2023-03-23T17:47:42.927Z,97619.56
2023-03-23T17:50:11.935Z,97618.63
2023-03-23T17:52:40.236Z,97617.84
2023-03-23T17:55:07.400Z,97624.41
2023-03-23T17:57:35.044Z,97620.13
2023-03-23T18:00:02.727Z,97613.47
2023-03-23T18:02:33.942Z,97627.94
2023-03-23T18:05:00.846Z,97629.97
2023-03-23T18:07:27.863Z,97626.06
2023-03-23T18:09:59.779Z,97627.63
2023-03-23T18:12:26.998Z,97625.13
2023-03-23T18:14:59.833Z,97628.41
2023-03-23T18:17:26.932Z,97633.50
2023-03-23T18:19:54.005Z,97627.09
2023-03-23T18:22:21.150Z,97622.00
2023-03-23T18:24:47.829Z,97618.31
2023-03-23T18:27:14.828Z,97623.72
2023-03-23T18:29:41.681Z,97620.09
2023-03-23T18:32:08.501Z,97615.22
2023-03-23T18:34:36.824Z,97615.75
2023-03-23T18:37:04.282Z,97614.09
2023-03-23T18:39:33.815Z,97614.72
2023-03-23T18:42:01.215Z,97619.88
2023-03-23T18:44:28.019Z,97607.91
2023-03-23T18:46:54.663Z,97618.50
2023-03-23T18:49:21.607Z,97614.22
2023-03-23T18:51:48.400Z,97617.31
2023-03-23T18:54:15.175Z,97612.28
2023-03-23T18:56:41.825Z,97605.91
2023-03-23T18:59:09.080Z,97616.19
2023-03-23T19:01:35.984Z,97618.13
2023-03-23T19:04:06.850Z,97616.38
2023-03-23T19:06:34.752Z,97619.91
2023-03-23T19:09:01.708Z,97613.03
2023-03-23T19:11:28.517Z,97615.63
2023-03-23T19:14:02.298Z,97605.63
2023-03-23T19:16:32.713Z,97613.84
2023-03-23T19:19:01.483Z,97612.19
2023-03-23T19:21:29.845Z,97600.84
2023-03-23T19:23:58.351Z,97604.84
2023-03-23T19:26:34.746Z,97602.00
2023-03-23T19:29:25.248Z,97605.38
2023-03-23T19:31:50.115Z,97595.13
2023-03-23T19:34:18.178Z,97600.06
2023-03-23T19:36:53.815Z,97596.66
2023-03-23T19:39:22.081Z,97593.81
2023-03-23T19:41:50.553Z,97589.75
2023-03-23T19:44:17.980Z,97587.53
2023-03-23T19:46:45.338Z,97587.72
2023-03-23T19:49:12.242Z,97582.56
2023-03-23T19:51:39.806Z,97582.34
2023-03-23T19:54:07.893Z,97577.56
2023-03-23T19:56:35.675Z,97583.25
2023-03-23T19:59:02.487Z,97579.34
2023-03-23T20:01:29.244Z,97591.72
2023-03-23T20:03:59.753Z,97590.56
2023-03-23T20:06:29.065Z,97595.72
2023-03-23T20:08:56.857Z,97595.56
2023-03-23T20:11:23.668Z,97597.50
2023-03-23T20:13:50.734Z,97588.44
2023-03-23T20:16:18.434Z,97591.47
2023-03-23T20:18:46.374Z,97591.00
2023-03-23T20:21:18.904Z,97587.03
2023-03-23T20:23:46.325Z,97582.44
2023-03-23T20:26:19.512Z,97584.22
2023-03-23T20:28:47.741Z,97589.38
2023-03-23T20:31:23.418Z,97580.47
2023-03-23T20:34:00.994Z,97586.00
2023-03-23T20:36:35.803Z,97582.81
2023-03-23T20:39:05.876Z,97579.94
2023-03-23T20:41:35.757Z,97585.53
2023-03-23T20:44:03.243Z,97574.06
2023-03-23T20:46:29.895Z,97577.97
2023-03-23T20:48:57.301Z,97581.72
2023-03-23T20:51:24.236Z,97579.50
2023-03-23T20:53:50.861Z,97577.50
2023-03-23T20:56:17.555Z,97572.63
2023-03-23T20:58:44.560Z,97576.09
2023-03-23T21:01:15.885Z,97571.06
2023-03-23T21:03:43.749Z,97575.75
2023-03-23T21:06:11.872Z,97577.94
2023-03-23T21:08:40.772Z,97568.28
2023-03-23T21:11:10.293Z,97569.09
2023-03-23T21:13:37.087Z,97580.31
2023-03-23T21:16:05.026Z,97573.03
2023-03-23T21:18:32.380Z,97566.53
2023-03-23T21:21:00.305Z,97564.97
2023-03-23T21:23:29.476Z,97555.19
2023-03-23T21:26:01.627Z,97562.63
2023-03-23T21:28:28.447Z,97555.03
2023-03-23T21:30:59.115Z,97549.53
2023-03-23T21:33:26.086Z,97550.59
2023-03-23T21:35:52.844Z,97541.25
2023-03-23T21:38:19.887Z,97534.41
2023-03-23T21:40:46.915Z,97527.53
2023-03-23T21:43:16.063Z,97504.34
2023-03-23T21:45:44.801Z,97509.50
2023-03-23T21:48:13.283Z,97506.16
2023-03-23T21:50:44.463Z,97501.09
2023-03-23T21:53:12.711Z,97508.13
2023-03-23T21:55:41.882Z,97507.66
2023-03-23T21:58:09.627Z,97511.69
2023-03-23T22:00:36.899Z,97513.50
2023-03-23T22:03:04.618Z,97509.31
2023-03-23T22:05:32.156Z,97508.66
2023-03-23T22:07:58.844Z,97504.81
2023-03-23T22:10:26.006Z,97502.47
2023-03-23T22:12:55.505Z,97502.25
2023-03-23T22:15:27.701Z,97497.56
2023-03-23T22:17:55.129Z,97503.59
2023-03-23T22:20:22.002Z,97479.59
2023-03-23T22:22:49.164Z,97477.53
2023-03-23T22:25:15.957Z,97465.53
2023-03-23T22:27:43.264Z,97462.16
2023-03-23T22:30:11.223Z,97465.38
2023-03-23T22:32:38.129Z,97472.88
2023-03-23T22:35:06.866Z,97460.13
2023-03-23T22:37:33.644Z,97470.38
2023-03-23T22:40:00.390Z,97467.22
2023-03-23T22:42:27.119Z,97465.28
2023-03-23T22:44:53.857Z,97476.63
2023-03-23T22:47:20.579Z,97473.72
2023-03-23T22:49:47.273Z,97457.78
2023-03-23T22:52:14.731Z,97450.03
2023-03-23T22:54:41.427Z,97442.69
2023-03-23T22:57:08.418Z,97443.97
2023-03-23T22:59:35.145Z,97437.69
2023-03-23T23:02:01.841Z,97432.47
2023-03-23T23:04:28.595Z,97419.00
2023-03-23T23:07:03.183Z,97407.66
2023-03-23T23:09:33.441Z,97399.44
2023-03-23T23:12:00.174Z,97392.84
2023-03-23T23:14:27.189Z,97385.31
2023-03-23T23:16:54.056Z,97381.41
2023-03-23T23:19:20.836Z,97386.00
2023-03-23T23:21:47.538Z,97388.91
2023-03-23T23:24:14.648Z,97383.06
2023-03-23T23:26:41.698Z,97390.34
2023-03-23T23:29:09.276Z,97392.66
2023-03-23T23:31:36.097Z,97378.50
2023-03-23T23:34:04.188Z,97378.59
2023-03-23T23:36:32.399Z,97370.59
2023-03-23T23:39:01.063Z,97364.06
2023-03-23T23:41:27.996Z,97356.09
2023-03-23T23:43:55.314Z,97347.44
2023-03-23T23:46:22.361Z,97351.59
2023-03-23T23:48:49.103Z,97339.25
2023-03-23T23:51:17.469Z,97343.06
2023-03-23T23:53:46.179Z,97343.91
2023-03-23T23:56:14.214Z,97340.50
2023-03-23T23:58:40.995Z,97337.84
